Pettisville, Ohio
Current Conditions -  °F | °C
As of 6:55 PM on Friday 31 Oct 2014 (Local Time) from KUSE Reporting Station
Drizzle Drizzle  
Wind Chill: 25°   Ceiling: 1800
Heat Index: 36°   Visibility: 8mi
Dew Point: 34°   Wind: 20mph
Humidity: 93%   Direction: 360°N
Pressure: 30.01"   Gusts: 32mph
Location:  41.53°N, 84.23°W
Report Text: KUSE 312255Z AUTO 36017G28KT 8SM -DZ SCT014 BKN018 OVC023 02/01 A3001 RMK AO2
Loading
Personal Weather Stations






























Interactive Weather Map
Tropical Storm Tracking
New forecast layout! Learn more

10-Day Weather Forecast

Advertisements
Track Severe Weather on mobile